Terminal Aerodrome Forecast
Issued by NWS

Home | Current Version | Previous Version | Text Only | Print | Product List | Glossary On
Versions: 1 2 3 4 5 6 7 8 9 10 11 12 13 14 15 16 17
000
FTAK31 PANC 271737
TAFADQ
TAF
PADQ 271737Z 2718/2818 10012KT P6SM -RA SCT007 BKN015 OVC035
     FM280600 09005KT 4SM RA BR BKN008 OVC020
     FM281500 10005KT 6SM -RA BR BKN015 OVC025=

USA.gov is the U.S. government's official web portal to all federal, state and local government web resources and services.